createdAt,value
2022-08-30T00:01:03.652Z,99175.00
2022-08-30T00:03:43.814Z,99177.00
2022-08-30T00:06:11.190Z,99172.00
2022-08-30T00:08:38.645Z,99181.00
2022-08-30T00:11:09.839Z,99170.00
2022-08-30T00:13:37.627Z,99175.00
2022-08-30T00:16:06.754Z,99182.00
2022-08-30T00:18:35.482Z,99191.00
2022-08-30T00:21:03.203Z,99183.00
2022-08-30T00:23:30.322Z,99188.00
2022-08-30T00:25:57.079Z,99183.00
2022-08-30T00:28:24.087Z,99184.00
2022-08-30T00:30:50.968Z,99182.00
2022-08-30T00:33:18.193Z,99180.00
2022-08-30T00:35:45.182Z,99184.00
2022-08-30T00:38:13.213Z,99192.00
2022-08-30T00:40:42.237Z,99188.00
2022-08-30T00:43:14.123Z,99173.00
2022-08-30T00:45:41.318Z,99175.00
2022-08-30T00:48:08.360Z,99172.00
2022-08-30T00:50:43.290Z,99176.00
2022-08-30T00:53:17.700Z,99183.00
2022-08-30T00:55:45.020Z,99193.00
2022-08-30T00:58:19.874Z,99186.00
2022-08-30T01:00:48.918Z,99163.00
2022-08-30T01:03:16.435Z,99187.00
2022-08-30T01:05:43.982Z,99192.00
2022-08-30T01:08:10.886Z,99198.00
2022-08-30T01:10:38.443Z,99196.00
2022-08-30T01:13:05.985Z,99200.00
2022-08-30T01:15:34.333Z,99192.00
2022-08-30T01:18:02.619Z,99185.00
2022-08-30T01:20:36.084Z,99201.00
2022-08-30T01:23:15.846Z,99187.00
2022-08-30T01:25:46.445Z,99185.00
2022-08-30T01:28:21.582Z,99181.00
2022-08-30T01:30:48.707Z,99171.00
2022-08-30T01:33:15.787Z,99188.00
2022-08-30T01:36:12.299Z,99184.00
2022-08-30T01:38:47.733Z,99174.00
2022-08-30T01:41:22.475Z,99190.00
2022-08-30T01:43:51.206Z,99177.00
2022-08-30T01:46:20.220Z,99185.00
2022-08-30T01:48:51.972Z,99187.00
2022-08-30T01:51:21.971Z,99182.00
2022-08-30T01:53:49.090Z,99184.00
2022-08-30T01:56:16.150Z,99190.00
2022-08-30T01:58:43.522Z,99199.00
2022-08-30T02:01:16.795Z,99183.00
2022-08-30T02:03:44.986Z,99174.00
2022-08-30T02:06:15.902Z,99180.00
2022-08-30T02:08:43.734Z,99172.00
2022-08-30T02:11:11.511Z,99186.00
2022-08-30T02:13:40.330Z,99182.00
2022-08-30T02:16:09.763Z,99180.00
2022-08-30T02:18:39.279Z,99178.00
2022-08-30T02:21:07.321Z,99167.00
2022-08-30T02:23:34.883Z,99167.00
2022-08-30T02:26:01.870Z,99163.00
2022-08-30T02:28:29.125Z,99165.00
2022-08-30T02:30:55.965Z,99162.00
2022-08-30T02:33:22.806Z,99161.00
2022-08-30T02:35:49.912Z,99165.00
2022-08-30T02:38:19.926Z,99164.00
2022-08-30T02:40:47.257Z,99158.00
2022-08-30T02:43:14.248Z,99166.00
2022-08-30T02:45:41.171Z,99157.00
2022-08-30T02:48:08.826Z,99167.00
2022-08-30T02:50:40.017Z,99161.00
2022-08-30T02:53:06.871Z,99153.00
2022-08-30T02:55:36.317Z,99160.00
2022-08-30T02:58:03.417Z,99161.00
2022-08-30T03:00:30.951Z,99160.00
2022-08-30T03:02:58.546Z,99159.00
2022-08-30T03:05:25.885Z,99155.00
2022-08-30T03:07:52.754Z,99150.00
2022-08-30T03:10:19.631Z,99161.00
2022-08-30T03:12:47.943Z,99158.00
2022-08-30T03:15:15.759Z,99167.00
2022-08-30T03:17:42.629Z,99160.00
2022-08-30T03:20:10.434Z,99151.00
2022-08-30T03:22:37.594Z,99156.00
2022-08-30T03:25:05.020Z,99165.00
2022-08-30T03:27:32.198Z,99159.00
2022-08-30T03:29:58.962Z,99143.00
2022-08-30T03:32:26.046Z,99164.00
2022-08-30T03:34:53.099Z,99154.00
2022-08-30T03:37:23.308Z,99160.00
2022-08-30T03:39:52.366Z,99158.00
2022-08-30T03:42:20.036Z,99153.00
2022-08-30T03:44:48.665Z,99163.00
2022-08-30T03:47:15.675Z,99180.00
2022-08-30T03:49:42.928Z,99164.00
2022-08-30T03:52:09.854Z,99170.00
2022-08-30T03:54:36.642Z,99172.00
2022-08-30T03:57:05.072Z,99169.00
2022-08-30T03:59:32.346Z,99160.00
2022-08-30T04:01:59.264Z,99165.00
2022-08-30T04:04:26.185Z,99155.00
2022-08-30T04:06:53.033Z,99163.00
2022-08-30T04:09:19.963Z,99167.00
2022-08-30T04:11:47.205Z,99155.00
2022-08-30T04:14:14.073Z,99180.00
2022-08-30T04:16:40.923Z,99168.00
2022-08-30T04:19:07.794Z,99154.00
2022-08-30T04:21:35.072Z,99164.00
2022-08-30T04:24:09.622Z,99167.00
2022-08-30T04:26:36.696Z,99175.00
2022-08-30T04:29:03.783Z,99158.00
2022-08-30T04:31:31.339Z,99165.00
2022-08-30T04:33:58.245Z,99159.00
2022-08-30T04:36:25.057Z,99162.00
2022-08-30T04:38:51.889Z,99147.00
2022-08-30T04:41:19.790Z,99155.00
2022-08-30T04:43:50.426Z,99161.00
2022-08-30T04:46:18.956Z,99165.00
2022-08-30T04:48:46.387Z,99155.00
2022-08-30T04:51:15.610Z,99165.00
2022-08-30T04:53:43.188Z,99169.00
2022-08-30T04:56:16.642Z,99168.00
2022-08-30T04:58:47.822Z,99148.00
2022-08-30T05:01:20.396Z,99164.00
2022-08-30T05:03:51.882Z,99156.00
2022-08-30T05:06:19.587Z,99176.00
2022-08-30T05:08:46.843Z,99175.00
2022-08-30T05:11:15.529Z,99177.00
2022-08-30T05:13:43.276Z,99184.00
2022-08-30T05:16:10.296Z,99180.00
2022-08-30T05:18:37.266Z,99195.00
2022-08-30T05:21:03.978Z,99186.00
2022-08-30T05:23:30.847Z,99197.00
2022-08-30T05:25:57.647Z,99179.00
2022-08-30T05:28:26.361Z,99199.00
2022-08-30T05:30:53.359Z,99198.00
2022-08-30T05:33:20.118Z,99187.00
2022-08-30T05:35:46.925Z,99184.00
2022-08-30T05:38:13.672Z,99194.00
2022-08-30T05:40:42.040Z,99205.00
2022-08-30T05:43:10.134Z,99206.00
2022-08-30T05:45:37.959Z,99206.00
2022-08-30T05:48:05.353Z,99200.00
2022-08-30T05:50:33.380Z,99202.00
2022-08-30T05:53:00.907Z,99199.00
2022-08-30T05:55:27.652Z,99201.00
2022-08-30T05:57:54.556Z,99186.00
2022-08-30T06:00:21.603Z,99189.00
2022-08-30T06:02:53.378Z,99201.00
2022-08-30T06:05:20.173Z,99199.00
2022-08-30T06:07:47.611Z,99202.00
2022-08-30T06:10:15.422Z,99206.00
2022-08-30T06:12:44.119Z,99204.00
2022-08-30T06:15:11.509Z,99203.00
2022-08-30T06:17:39.663Z,99195.00
2022-08-30T06:20:07.238Z,99204.00
2022-08-30T06:22:34.356Z,99207.00
2022-08-30T06:25:01.187Z,99209.00
2022-08-30T06:27:27.954Z,99207.00
2022-08-30T06:29:54.716Z,99214.00
2022-08-30T06:32:21.575Z,99213.00
2022-08-30T06:34:48.635Z,99206.00
2022-08-30T06:37:21.977Z,99213.00
2022-08-30T06:39:58.481Z,99228.00
2022-08-30T06:42:32.190Z,99236.00
2022-08-30T06:45:11.050Z,99226.00
2022-08-30T06:47:38.703Z,99229.00
2022-08-30T06:50:06.127Z,99225.00
2022-08-30T06:52:33.342Z,99225.00
2022-08-30T06:55:01.457Z,99225.00
2022-08-30T06:57:28.277Z,99224.00
2022-08-30T06:59:57.295Z,99221.00
2022-08-30T07:02:26.323Z,99224.00
2022-08-30T07:04:53.418Z,99219.00
2022-08-30T07:07:20.227Z,99213.00
2022-08-30T07:09:47.224Z,99213.00
2022-08-30T07:12:15.456Z,99216.00
2022-08-30T07:14:43.052Z,99215.00
2022-08-30T07:17:31.298Z,99217.00
2022-08-30T07:20:01.229Z,99224.00
2022-08-30T07:22:28.971Z,99209.00
2022-08-30T07:24:55.720Z,99218.00
2022-08-30T07:27:22.504Z,99220.00
2022-08-30T07:29:49.820Z,99218.00
2022-08-30T07:32:16.684Z,99217.00
2022-08-30T07:34:43.521Z,99217.00
2022-08-30T07:37:10.312Z,99221.00
2022-08-30T07:39:47.773Z,99221.00
2022-08-30T07:42:15.846Z,99212.00
2022-08-30T07:44:42.603Z,99223.00
2022-08-30T07:47:09.751Z,99215.00
2022-08-30T07:49:37.078Z,99218.00
2022-08-30T07:52:04.488Z,99223.00
2022-08-30T07:54:31.288Z,99216.00
2022-08-30T07:56:58.057Z,99216.00
2022-08-30T07:59:25.168Z,99213.00
2022-08-30T08:01:51.990Z,99209.00
2022-08-30T08:04:19.501Z,99205.00
2022-08-30T08:06:46.452Z,99217.00
2022-08-30T08:09:13.788Z,99206.00
2022-08-30T08:11:41.441Z,99215.00
2022-08-30T08:14:08.470Z,99222.00
2022-08-30T08:16:38.606Z,99212.00
2022-08-30T08:19:09.007Z,99218.00
2022-08-30T08:21:36.872Z,99214.00
2022-08-30T08:24:04.014Z,99212.00
2022-08-30T08:26:33.605Z,99217.00
2022-08-30T08:29:00.417Z,99212.00
2022-08-30T08:31:33.252Z,99218.00
2022-08-30T08:34:03.033Z,99219.00
2022-08-30T08:36:31.336Z,99208.00
2022-08-30T08:38:58.690Z,99215.00
2022-08-30T08:41:43.533Z,99217.00
2022-08-30T08:44:50.809Z,99210.00
2022-08-30T08:47:56.010Z,99208.00
2022-08-30T08:50:24.191Z,99210.00
2022-08-30T08:53:45.220Z,99214.00
2022-08-30T08:56:12.632Z,99197.00
2022-08-30T08:58:49.302Z,99206.00
2022-08-30T09:01:19.026Z,99202.00
2022-08-30T09:03:46.758Z,99209.00
2022-08-30T09:06:45.416Z,99196.00
2022-08-30T09:09:13.622Z,99196.00
2022-08-30T09:11:42.202Z,99196.00
2022-08-30T09:14:38.812Z,99197.00
2022-08-30T09:17:09.650Z,99199.00
2022-08-30T09:19:42.610Z,99194.00
2022-08-30T09:22:31.136Z,99195.00
2022-08-30T09:25:11.516Z,99183.00
2022-08-30T09:27:46.874Z,99189.00
2022-08-30T09:30:18.273Z,99178.00
2022-08-30T09:32:57.147Z,99185.00
2022-08-30T09:35:38.122Z,99179.00
2022-08-30T09:38:18.101Z,99177.00
2022-08-30T09:40:49.008Z,99169.00
2022-08-30T09:43:31.606Z,99177.00
2022-08-30T09:46:01.463Z,99168.00
2022-08-30T09:48:37.699Z,99167.00
2022-08-30T09:51:10.926Z,99162.00
2022-08-30T09:54:18.608Z,99169.00
2022-08-30T09:57:01.030Z,99160.00
2022-08-30T09:59:33.847Z,99162.00
2022-08-30T10:02:00.539Z,99160.00
2022-08-30T10:04:47.747Z,99149.00
2022-08-30T10:07:29.283Z,99150.00
2022-08-30T10:10:07.417Z,99154.00
2022-08-30T10:13:02.751Z,99158.00
2022-08-30T10:15:32.206Z,99160.00
2022-08-30T10:18:20.847Z,99160.00
2022-08-30T10:21:19.166Z,99159.00
2022-08-30T10:23:52.084Z,99160.00
2022-08-30T10:26:39.978Z,99159.00
2022-08-30T10:29:14.710Z,99152.00
2022-08-30T10:31:52.255Z,99151.00
2022-08-30T10:34:40.818Z,99147.00
2022-08-30T10:37:11.845Z,99155.00
2022-08-30T10:39:48.889Z,99148.00
2022-08-30T10:42:24.585Z,99151.00
2022-08-30T10:45:05.197Z,99158.00
2022-08-30T10:47:41.772Z,99154.00
2022-08-30T10:50:25.103Z,99156.00
2022-08-30T10:52:59.335Z,99150.00
2022-08-30T10:55:35.485Z,99154.00
2022-08-30T10:58:06.266Z,99161.00
2022-08-30T11:01:12.676Z,99162.00
2022-08-30T11:03:53.083Z,99157.00
2022-08-30T11:06:47.819Z,99156.00
2022-08-30T11:09:26.684Z,99159.00
2022-08-30T11:12:24.506Z,99156.00
2022-08-30T11:14:53.965Z,99148.00
2022-08-30T11:17:26.823Z,99146.00
2022-08-30T11:19:56.663Z,99140.00
2022-08-30T11:22:38.635Z,99146.00
2022-08-30T11:25:13.971Z,99144.00
2022-08-30T11:27:58.942Z,99144.00
2022-08-30T11:30:27.092Z,99142.00
2022-08-30T11:32:59.369Z,99139.00
2022-08-30T11:35:37.537Z,99129.00
2022-08-30T11:38:36.771Z,99135.00
2022-08-30T11:41:09.658Z,99134.00
2022-08-30T11:43:51.323Z,99128.00
2022-08-30T11:46:26.047Z,99125.00
2022-08-30T11:49:13.021Z,99127.00
2022-08-30T11:52:27.201Z,99122.00
2022-08-30T11:55:09.501Z,99125.00
2022-08-30T11:57:58.728Z,99118.00
2022-08-30T12:00:34.688Z,99113.00
2022-08-30T12:03:05.360Z,99113.00
2022-08-30T12:05:38.635Z,99106.00
2022-08-30T12:08:12.541Z,99106.00
2022-08-30T12:10:41.694Z,99098.00
2022-08-30T12:13:09.435Z,99096.00
2022-08-30T12:15:57.871Z,99097.00
2022-08-30T12:18:33.782Z,99093.00
2022-08-30T12:21:08.584Z,99091.00
2022-08-30T12:23:48.410Z,99097.00
2022-08-30T12:26:37.620Z,99090.00
2022-08-30T12:29:29.789Z,99099.00
2022-08-30T12:32:18.317Z,99093.00
2022-08-30T12:34:45.059Z,99092.00
2022-08-30T12:37:36.754Z,99096.00
2022-08-30T12:40:09.097Z,99088.00
2022-08-30T12:42:41.178Z,99084.00
2022-08-30T12:45:14.564Z,99079.00
2022-08-30T12:47:51.057Z,99079.00
2022-08-30T12:50:22.967Z,99078.00
2022-08-30T12:53:08.460Z,99064.00
2022-08-30T12:55:57.010Z,99067.00
2022-08-30T12:58:39.097Z,99071.00
2022-08-30T13:01:27.395Z,99060.00
2022-08-30T13:04:25.027Z,99057.00
2022-08-30T13:06:56.014Z,99059.00
2022-08-30T13:09:34.627Z,99043.00
2022-08-30T13:12:04.970Z,99041.00
2022-08-30T13:14:34.578Z,99034.00
2022-08-30T13:17:18.517Z,99035.00
2022-08-30T13:20:01.300Z,99031.00
2022-08-30T13:22:34.150Z,99022.00
2022-08-30T13:25:01.602Z,99023.00
2022-08-30T13:27:29.396Z,99020.00
2022-08-30T13:29:57.106Z,99015.00
2022-08-30T13:32:24.419Z,99007.00
2022-08-30T13:34:51.182Z,99001.00
2022-08-30T13:40:13.403Z,98996.00
2022-08-30T13:42:43.078Z,98996.00
2022-08-30T13:48:00.882Z,98988.00
2022-08-30T13:50:28.062Z,98986.00
2022-08-30T13:52:54.821Z,98981.00
2022-08-30T13:55:21.575Z,98978.00
2022-08-30T13:57:56.680Z,98979.00
2022-08-30T14:00:25.697Z,98978.00
2022-08-30T14:02:56.111Z,98990.00
2022-08-30T14:11:05.131Z,98997.00
2022-08-30T14:13:32.014Z,98991.00
2022-08-30T14:18:48.363Z,98997.00
2022-08-30T14:21:16.210Z,98995.00
2022-08-30T14:23:43.343Z,98987.00
2022-08-30T14:26:19.930Z,98975.00
2022-08-30T14:28:47.090Z,98969.00
2022-08-30T14:31:19.998Z,98980.00
2022-08-30T14:33:47.724Z,98973.00
2022-08-30T14:36:15.693Z,98963.00
2022-08-30T14:38:43.526Z,98967.00
2022-08-30T14:41:10.958Z,98966.00
2022-08-30T14:43:40.254Z,98968.00
2022-08-30T14:46:08.810Z,98968.00
2022-08-30T14:48:36.915Z,98971.00
2022-08-30T14:51:15.370Z,98976.00
2022-08-30T14:53:42.830Z,98968.00
2022-08-30T14:56:12.290Z,98972.00
2022-08-30T14:58:39.218Z,98970.00
2022-08-30T15:01:08.815Z,98970.00
2022-08-30T15:03:37.920Z,98959.00
2022-08-30T15:06:05.948Z,98965.00
2022-08-30T15:08:34.515Z,98948.00
2022-08-30T15:11:07.678Z,98953.00
2022-08-30T15:13:34.437Z,98947.00
2022-08-30T15:16:01.237Z,98951.00
2022-08-30T15:18:28.033Z,98937.00
2022-08-30T15:20:55.025Z,98930.00
2022-08-30T15:23:24.929Z,98941.00
2022-08-30T15:25:51.913Z,98931.00
2022-08-30T15:28:19.313Z,98924.00
2022-08-30T15:30:46.387Z,98923.00
2022-08-30T15:33:13.159Z,98920.00
2022-08-30T15:35:41.493Z,98910.00
2022-08-30T15:38:08.662Z,98913.00
2022-08-30T15:40:39.434Z,98907.00
2022-08-30T15:43:06.575Z,98913.00
2022-08-30T15:45:33.654Z,98915.00
2022-08-30T15:48:00.990Z,98919.00
2022-08-30T15:50:28.386Z,98914.00
2022-08-30T15:52:55.312Z,98921.00
2022-08-30T15:55:22.154Z,98929.00
2022-08-30T15:57:48.919Z,98924.00
2022-08-30T16:00:16.130Z,98917.00
2022-08-30T16:02:43.827Z,98929.00
2022-08-30T16:05:10.790Z,98929.00
2022-08-30T16:07:40.849Z,98923.00
2022-08-30T16:10:09.029Z,98921.00
2022-08-30T16:12:35.825Z,98922.00
2022-08-30T16:15:02.572Z,98926.00
2022-08-30T16:17:29.410Z,98927.00
2022-08-30T16:19:58.893Z,98918.00
2022-08-30T16:22:26.482Z,98921.00
2022-08-30T16:24:53.497Z,98915.00
2022-08-30T16:27:21.175Z,98926.00
2022-08-30T16:29:48.561Z,98926.00
2022-08-30T16:32:17.759Z,98924.00
2022-08-30T16:34:45.150Z,98906.00
2022-08-30T16:37:11.953Z,98912.00
2022-08-30T16:39:38.719Z,98910.00
2022-08-30T16:42:06.841Z,98912.00
2022-08-30T16:44:33.717Z,98911.00
2022-08-30T16:47:01.725Z,98911.00
2022-08-30T16:49:28.613Z,98911.00
2022-08-30T16:51:55.367Z,98904.00
2022-08-30T16:54:23.678Z,98905.00
2022-08-30T16:56:51.234Z,98912.00
2022-08-30T16:59:18.885Z,98898.00
2022-08-30T17:01:45.822Z,98899.00
2022-08-30T17:04:18.204Z,98901.00
2022-08-30T17:06:47.938Z,98904.00
2022-08-30T17:09:16.840Z,98900.00
2022-08-30T17:11:45.071Z,98913.00
2022-08-30T17:14:11.859Z,98918.00
2022-08-30T17:16:38.954Z,98919.00
2022-08-30T17:19:08.421Z,98921.00
2022-08-30T17:21:35.618Z,98920.00
2022-08-30T17:24:03.207Z,98917.00
2022-08-30T17:26:35.285Z,98916.00
2022-08-30T17:29:02.778Z,98924.00
2022-08-30T17:31:31.028Z,98925.00
2022-08-30T17:34:03.461Z,98930.00
2022-08-30T17:36:33.052Z,98926.00
2022-08-30T17:39:10.349Z,98916.00
2022-08-30T17:41:39.968Z,98923.00
2022-08-30T17:44:12.542Z,98927.00
2022-08-30T17:46:39.882Z,98927.00
2022-08-30T17:49:10.419Z,98926.00
2022-08-30T17:51:40.782Z,98919.00
2022-08-30T17:54:09.186Z,98916.00
2022-08-30T17:56:35.986Z,98915.00
2022-08-30T17:59:05.433Z,98914.00
2022-08-30T18:01:32.386Z,98914.00
2022-08-30T18:04:02.089Z,98911.00
2022-08-30T18:06:34.020Z,98920.00
2022-08-30T18:09:04.284Z,98910.00
2022-08-30T18:11:36.040Z,98912.00
2022-08-30T18:14:04.584Z,98911.00
2022-08-30T18:16:35.980Z,98923.00
2022-08-30T18:19:09.618Z,98922.00
2022-08-30T18:21:37.864Z,98927.00
2022-08-30T18:24:05.749Z,98928.00
2022-08-30T18:26:33.006Z,98925.00
2022-08-30T18:29:00.583Z,98921.00
2022-08-30T18:31:27.546Z,98926.00
2022-08-30T18:33:58.874Z,98928.00
2022-08-30T18:36:27.773Z,98913.00
2022-08-30T18:38:54.821Z,98918.00
2022-08-30T18:41:21.690Z,98923.00
2022-08-30T18:43:48.693Z,98923.00
2022-08-30T18:46:18.170Z,98930.00
2022-08-30T18:48:46.470Z,98920.00
2022-08-30T18:51:18.886Z,98928.00
2022-08-30T18:53:47.278Z,98931.00
2022-08-30T18:56:16.621Z,98927.00
2022-08-30T18:58:45.049Z,98946.00
2022-08-30T19:01:12.724Z,98942.00
2022-08-30T19:03:40.702Z,98958.00
2022-08-30T19:06:11.594Z,98947.00
2022-08-30T19:08:40.194Z,98955.00
2022-08-30T19:11:08.826Z,98965.00
2022-08-30T19:13:37.327Z,98964.00
2022-08-30T19:16:06.116Z,98970.00
2022-08-30T19:18:34.454Z,98970.00
2022-08-30T19:21:03.760Z,98970.00
2022-08-30T19:23:34.376Z,98977.00
2022-08-30T19:26:01.402Z,98968.00
2022-08-30T19:28:28.501Z,99002.00
2022-08-30T19:30:55.293Z,99003.00
2022-08-30T19:33:22.061Z,98999.00
2022-08-30T19:35:51.281Z,99012.00
2022-08-30T19:38:19.976Z,99003.00
2022-08-30T19:40:50.052Z,99012.00
2022-08-30T19:43:20.700Z,99021.00
2022-08-30T19:45:55.754Z,99016.00
2022-08-30T19:48:31.994Z,99023.00
2022-08-30T19:51:00.578Z,99036.00
2022-08-30T19:53:27.370Z,99030.00
2022-08-30T19:55:54.578Z,99051.00
2022-08-30T19:58:21.654Z,99054.00
2022-08-30T20:00:54.436Z,99079.00
2022-08-30T20:03:28.074Z,99081.00
2022-08-30T20:05:54.895Z,99123.00
2022-08-30T20:08:22.057Z,99155.00
2022-08-30T20:10:48.883Z,99160.00
2022-08-30T20:13:17.213Z,99135.00
2022-08-30T20:15:57.966Z,99126.00
2022-08-30T20:18:26.463Z,99118.00
2022-08-30T20:20:53.474Z,99115.00
2022-08-30T20:26:08.437Z,99107.00
2022-08-30T20:28:35.315Z,99109.00
2022-08-30T20:31:04.710Z,99116.00
2022-08-30T20:33:33.807Z,99118.00
2022-08-30T20:36:01.751Z,99108.00
2022-08-30T20:38:28.599Z,99094.00
2022-08-30T20:40:58.881Z,99098.00
2022-08-30T20:43:28.242Z,99096.00
2022-08-30T20:45:55.972Z,99089.00
2022-08-30T20:48:23.829Z,99099.00
2022-08-30T20:50:50.573Z,99094.00
2022-08-30T20:53:17.330Z,99110.00
2022-08-30T20:55:47.049Z,99121.00
2022-08-30T20:58:15.084Z,99115.00
2022-08-30T21:00:45.847Z,99130.00
2022-08-30T21:03:26.315Z,99118.00
2022-08-30T21:05:56.350Z,99124.00
2022-08-30T21:08:23.170Z,99121.00
2022-08-30T21:10:50.071Z,99122.00
2022-08-30T21:13:17.380Z,99120.00
2022-08-30T21:15:47.240Z,99137.00
2022-08-30T21:18:14.724Z,99142.00
2022-08-30T21:20:42.032Z,99145.00
2022-08-30T21:23:09.787Z,99142.00
2022-08-30T21:25:41.758Z,99153.00
2022-08-30T21:28:09.402Z,99137.00
2022-08-30T21:30:37.427Z,99141.00
2022-08-30T21:33:06.399Z,99143.00
2022-08-30T21:35:52.403Z,99137.00
2022-08-30T21:38:19.967Z,99146.00
2022-08-30T21:40:48.440Z,99140.00
2022-08-30T21:43:15.965Z,99169.00
2022-08-30T21:45:44.438Z,99174.00
2022-08-30T21:48:12.896Z,99198.00
2022-08-30T21:50:41.743Z,99206.00
2022-08-30T21:53:08.872Z,99222.00
2022-08-30T21:55:35.626Z,99223.00
2022-08-30T21:58:03.792Z,99221.00
2022-08-30T22:00:32.033Z,99228.00
2022-08-30T22:02:58.849Z,99234.00
2022-08-30T22:05:25.782Z,99238.00
2022-08-30T22:07:52.531Z,99264.00
2022-08-30T22:10:21.326Z,99278.00
2022-08-30T22:12:48.466Z,99278.00
2022-08-30T22:15:15.529Z,99283.00
2022-08-30T22:17:43.431Z,99288.00
2022-08-30T22:20:11.888Z,99281.00
2022-08-30T22:22:45.591Z,99274.00
2022-08-30T22:25:12.485Z,99273.00
2022-08-30T22:27:39.276Z,99267.00
2022-08-30T22:30:06.632Z,99270.00
2022-08-30T22:32:33.411Z,99250.00
2022-08-30T22:35:00.157Z,99251.00
2022-08-30T22:37:26.934Z,99252.00
2022-08-30T22:39:53.754Z,99265.00
2022-08-30T22:42:20.497Z,99259.00
2022-08-30T22:44:48.329Z,99260.00
2022-08-30T22:47:15.086Z,99252.00
2022-08-30T22:49:41.840Z,99245.00
2022-08-30T22:52:09.002Z,99255.00
2022-08-30T22:54:37.081Z,99261.00
2022-08-30T22:57:04.499Z,99253.00
2022-08-30T22:59:32.506Z,99260.00
2022-08-30T23:01:59.960Z,99264.00
2022-08-30T23:04:26.845Z,99265.00
2022-08-30T23:06:53.608Z,99266.00
2022-08-30T23:09:20.378Z,99263.00
2022-08-30T23:11:47.249Z,99273.00
2022-08-30T23:14:14.115Z,99249.00
2022-08-30T23:16:41.005Z,99273.00
2022-08-30T23:19:07.874Z,99270.00
2022-08-30T23:21:34.686Z,99277.00
2022-08-30T23:24:20.224Z,99268.00
2022-08-30T23:27:06.275Z,99272.00
2022-08-30T23:29:51.969Z,99272.00
2022-08-30T23:32:38.030Z,99278.00
2022-08-30T23:35:29.690Z,99275.00
2022-08-30T23:38:17.215Z,99277.00
2022-08-30T23:41:02.218Z,99277.00
2022-08-30T23:43:47.360Z,99269.00
2022-08-30T23:46:33.198Z,99264.00
2022-08-30T23:49:18.293Z,99282.00
2022-08-30T23:52:03.927Z,99271.00
2022-08-30T23:54:49.548Z,99267.00
2022-08-30T23:57:34.796Z,99260.00
